Time;durP1;ratioP1;P1;durP2;ratioP2;P2;SDS_P1;SDS_P2;PMS_P1;PMS_P2;Temp;Humidity;BMP_temperature;BMP_pressure;BME280_temperature;BME280_humidity;BME280_pressure;Samples;Min_cycle;Max_cycle;Signal;HPM_P1;HPM_P2
2023/07/05 00:00:31;;;;;;;;;;;24.10;99.90;;;;;;5093640;28;20119;-81
2023/07/05 00:02:57;;;;;;;6.00;2.25;;;24.10;99.90;;;;;;5093387;28;19954;-79
2023/07/05 00:05:23;;;;;;;4.45;2.15;;;24.10;99.90;;;;;;5093169;28;20035;-80
2023/07/05 00:07:50;;;;;;;11.13;2.22;;;24.10;99.90;;;;;;5093080;28;20035;-79
2023/07/05 00:10:16;;;;;;;4.47;2.40;;;24.00;99.90;;;;;;5092934;28;20115;-79
2023/07/05 00:12:42;;;;;;;6.60;2.00;;;24.00;99.90;;;;;;5092811;28;20016;-80
2023/07/05 00:15:09;;;;;;;3.45;2.10;;;24.00;99.90;;;;;;5093560;28;20035;-80
2023/07/05 00:17:35;;;;;;;6.03;2.38;;;24.00;99.90;;;;;;5093988;28;20503;-79
2023/07/05 00:20:04;;;;;;;4.25;1.90;;;24.00;99.90;;;;;;5097888;28;20170;-79
2023/07/05 00:22:30;;;;;;;5.47;2.33;;;24.00;99.90;;;;;;5097311;28;20028;-81
2023/07/05 00:24:57;;;;;;;5.78;2.28;;;23.90;99.90;;;;;;5097286;28;20078;-81
2023/07/05 00:27:23;;;;;;;;;;;24.00;99.90;;;;;;5097049;28;20368;-81
2023/07/05 00:29:50;;;;;;;3.55;2.03;;;23.90;99.90;;;;;;5097602;28;19912;-80
2023/07/05 00:32:17;;;;;;;5.70;2.08;;;23.80;99.90;;;;;;5097528;28;20036;-79
2023/07/05 00:34:43;;;;;;;4.88;2.30;;;23.80;99.90;;;;;;5097427;28;20020;-80
2023/07/05 00:37:09;;;;;;;6.00;2.45;;;23.70;99.90;;;;;;5097383;28;20031;-80
2023/07/05 00:39:35;;;;;;;5.60;2.10;;;23.70;99.90;;;;;;5095681;28;20035;-79
2023/07/05 00:42:02;;;;;;;5.50;2.33;;;23.60;99.90;;;;;;5095891;28;20433;-82
2023/07/05 00:44:28;;;;;;;;;;;23.60;99.90;;;;;;5097873;28;20472;-80
2023/07/05 00:46:59;;;;;;;5.35;2.42;;;23.50;99.90;;;;;;5097314;28;19911;-80
2023/07/05 00:49:28;;;;;;;6.50;2.58;;;23.50;99.90;;;;;;5097099;28;20107;-80
2023/07/05 00:51:59;;;;;;;5.63;2.25;;;23.50;99.90;;;;;;5096756;28;20024;-81
2023/07/05 00:54:34;;;;;;;7.57;2.38;;;23.50;99.90;;;;;;5096566;28;20039;-79
2023/07/05 00:57:09;;;;;;;5.72;2.13;;;23.40;99.90;;;;;;5096842;28;20032;-79
2023/07/05 00:59:43;;;;;;;6.20;2.20;;;23.50;99.90;;;;;;5096500;28;20107;-80
2023/07/05 01:02:10;;;;;;;4.38;2.38;;;23.40;99.90;;;;;;5096567;28;20058;-79
2023/07/05 01:04:36;;;;;;;5.82;2.50;;;23.40;99.90;;;;;;5096151;28;20028;-79
2023/07/05 01:07:02;;;;;;;4.15;2.25;;;23.30;99.90;;;;;;5096134;28;20483;-80
2023/07/05 01:09:29;;;;;;;5.10;2.42;;;23.30;99.90;;;;;;5096558;28;20032;-79
2023/07/05 01:12:00;;;;;;;5.65;2.35;;;23.40;99.90;;;;;;5096273;28;20059;-80
2023/07/05 01:14:38;;;;;;;5.75;2.67;;;23.40;99.90;;;;;;5096668;28;20462;-79
2023/07/05 01:17:18;;;;;;;5.40;2.45;;;23.50;99.90;;;;;;5095960;28;20048;-80
2023/07/05 01:20:02;;;;;;;4.72;2.38;;;23.50;99.90;;;;;;5096500;28;20031;-80
2023/07/05 01:23:12;;;;;;;10.60;2.70;;;23.50;99.90;;;;;;5096430;28;20024;-79
2023/07/05 01:25:55;;;;;;;4.85;2.58;;;23.50;99.90;;;;;;5095873;28;20032;-80
2023/07/05 01:28:57;;;;;;;7.93;2.85;;;23.50;99.90;;;;;;5095721;28;20031;-79
2023/07/05 01:32:11;;;;;;;4.80;2.42;;;23.40;99.90;;;;;;5096149;28;20364;-79
2023/07/05 01:34:59;;;;;;;7.28;2.53;;;23.40;99.90;;;;;;5086529;28;20036;-79
2023/07/05 01:37:33;;;;;;;4.57;2.33;;;23.30;99.90;;;;;;5095547;28;20024;-79
2023/07/05 01:39:59;;;;;;;5.55;2.50;;;23.30;99.90;;;;;;5095749;28;20101;-78
2023/07/05 01:42:33;;;;;;;8.40;2.60;;;23.40;99.90;;;;;;5095751;28;20055;-79
2023/07/05 01:45:00;;;;;;;5.45;2.40;;;23.40;99.90;;;;;;5095414;28;20020;-79
2023/07/05 01:47:50;;;;;;;8.30;2.53;;;23.50;99.90;;;;;;5095464;28;20051;-80
2023/07/05 01:50:43;;;;;;;5.22;2.53;;;23.50;99.90;;;;;;5094284;28;20113;-80
2023/07/05 01:53:23;;;;;;;6.68;2.60;;;23.50;99.90;;;;;;5095773;28;20028;-80
2023/07/05 01:56:04;;;;;;;4.07;2.20;;;23.50;99.90;;;;;;5093791;28;20020;-79
2023/07/05 01:58:35;;;;;;;5.25;2.55;;;23.30;99.90;;;;;;5093950;28;20035;-80
2023/07/05 02:01:03;;;;;;;4.93;2.58;;;23.20;99.90;;;;;;5095531;28;20103;-80
2023/07/05 02:03:31;;;;;;;7.40;2.25;;;23.30;99.90;;;;;;5093846;28;20028;-81
2023/07/05 02:05:57;;;;;;;5.70;2.17;;;23.30;99.90;;;;;;5095198;28;20028;-80
2023/07/05 02:08:27;;;;;;;6.25;2.50;;;23.20;99.90;;;;;;5095003;28;20024;-81
2023/07/05 02:10:54;;;;;;;4.97;2.30;;;23.20;99.90;;;;;;5094774;28;20035;-80
2023/07/05 02:13:20;;;;;;;5.75;2.50;;;23.10;99.90;;;;;;5094903;28;20039;-81
2023/07/05 02:15:50;;;;;;;5.03;2.42;;;23.10;99.90;;;;;;5094659;28;20035;-78
2023/07/05 02:18:17;;;;;;;4.63;2.40;;;23.10;99.90;;;;;;5095130;28;20153;-80
2023/07/05 02:20:43;;;;;;;5.70;2.53;;;23.10;99.90;;;;;;5094830;28;20482;-81
2023/07/05 02:23:09;;;;;;;3.65;2.20;;;23.10;99.90;;;;;;5094813;28;20150;-81
2023/07/05 02:25:36;;;;;;;5.35;2.65;;;23.10;99.90;;;;;;5094801;28;20060;-80
2023/07/05 02:28:09;;;;;;;6.53;2.63;;;23.00;99.90;;;;;;5094771;28;20028;-80
2023/07/05 02:30:39;;;;;;;5.75;2.65;;;23.10;99.90;;;;;;5095054;28;20056;-79
2023/07/05 02:33:05;;;;;;;5.25;2.50;;;23.00;99.90;;;;;;5094539;28;20066;-80
2023/07/05 02:35:39;;;;;;;6.93;2.65;;;23.00;99.90;;;;;;5094742;28;20032;-80
2023/07/05 02:38:05;;;;;;;5.75;2.60;;;22.80;99.90;;;;;;5094641;28;20020;-79
2023/07/05 02:40:32;;;;;;;7.25;2.70;;;22.90;99.90;;;;;;5093601;28;20030;-79
2023/07/05 02:42:59;;;;;;;5.03;2.45;;;22.80;99.90;;;;;;5094440;28;20020;-80
2023/07/05 02:45:29;;;;;;;8.82;2.92;;;22.80;99.90;;;;;;5094952;28;20024;-81
2023/07/05 02:47:55;;;;;;;5.43;2.40;;;22.80;99.90;;;;;;5094437;28;20032;-81
2023/07/05 02:50:21;;;;;;;6.68;2.85;;;22.80;99.90;;;;;;5094129;28;20024;-79
2023/07/05 02:52:48;;;;;;;5.72;2.60;;;22.80;99.90;;;;;;5094732;28;20325;-80
2023/07/05 02:55:14;;;;;;;7.10;2.83;;;22.70;99.90;;;;;;5093896;28;20028;-81
2023/07/05 02:57:40;;;;;;;4.60;2.58;;;22.80;99.90;;;;;;5092745;28;20025;-81
2023/07/05 03:00:06;;;;;;;6.70;2.65;;;22.80;99.90;;;;;;5094263;28;20031;-81
2023/07/05 03:02:33;;;;;;;;;;;22.80;99.90;;;;;;5094908;28;20342;-79
2023/07/05 03:05:06;;;;;;;9.93;2.72;;;22.90;99.90;;;;;;5094151;28;19919;-80
2023/07/05 03:07:33;;;;;;;5.47;2.80;;;22.90;99.90;;;;;;5072513;28;20069;-80
2023/07/05 03:09:59;;;;;;;;;;;22.90;99.90;;;;;;5073853;28;20028;-80
2023/07/05 03:12:25;;;;;;;6.72;2.60;;;22.90;99.90;;;;;;5073623;28;19904;-80
2023/07/05 03:14:52;;;;;;;7.95;2.85;;;22.90;99.90;;;;;;5073655;28;20031;-81
2023/07/05 03:17:18;;;;;;;7.20;2.78;;;23.00;99.90;;;;;;5073220;28;20052;-80
2023/07/05 03:19:44;;;;;;;8.45;3.75;;;22.90;99.90;;;;;;5073967;28;20052;-80
2023/07/05 03:22:10;;;;;;;6.35;2.65;;;22.90;99.90;;;;;;5073439;28;20111;-80
2023/07/05 03:24:36;;;;;;;7.57;3.00;;;22.90;99.90;;;;;;5073464;28;20052;-81
2023/07/05 03:27:03;;;;;;;7.45;2.72;;;22.80;99.90;;;;;;5073386;28;20502;-80
2023/07/05 03:29:29;;;;;;;6.78;2.90;;;22.70;99.90;;;;;;5073596;28;20119;-80
2023/07/05 03:31:55;;;;;;;6.85;2.58;;;22.70;99.90;;;;;;5073144;28;20028;-79
2023/07/05 03:34:21;;;;;;;6.28;2.63;;;22.70;99.90;;;;;;5073175;28;20031;-79
2023/07/05 03:36:47;;;;;;;5.63;2.60;;;22.60;99.90;;;;;;5087865;28;20451;-79
2023/07/05 03:39:16;;;;;;;4.28;2.38;;;22.60;99.90;;;;;;5093869;28;20061;-80
2023/07/05 03:41:42;;;;;;;5.25;2.50;;;22.60;99.90;;;;;;5093750;28;20131;-79
2023/07/05 03:44:09;;;;;;;7.07;2.90;;;22.50;99.90;;;;;;5093273;28;20060;-80
2023/07/05 03:46:35;;;;;;;5.15;2.55;;;22.50;99.90;;;;;;5092149;28;20032;-80
2023/07/05 03:49:01;;;;;;;5.82;2.75;;;22.40;99.90;;;;;;5093231;28;20089;-77
2023/07/05 03:51:27;;;;;;;5.57;2.80;;;22.40;99.90;;;;;;5093121;28;20044;-79
2023/07/05 03:53:55;;;;;;;5.35;2.63;;;22.40;99.90;;;;;;5093374;28;20038;-78
2023/07/05 03:56:22;;;;;;;6.00;2.72;;;22.40;99.90;;;;;;5092950;28;20085;-79
2023/07/05 03:58:49;;;;;;;5.72;2.42;;;22.40;99.90;;;;;;5093273;28;20383;-79
2023/07/05 04:01:22;;;;;;;10.75;2.97;;;22.50;99.90;;;;;;5092983;28;20047;-79
2023/07/05 04:03:54;;;;;;;5.97;2.50;;;22.60;99.90;;;;;;5093412;28;20031;-79
2023/07/05 04:06:21;;;;;;;5.88;2.90;;;22.60;99.90;;;;;;5093299;28;20024;-79
2023/07/05 04:08:50;;;;;;;8.10;2.78;;;22.60;99.90;;;;;;5093407;28;20405;-79
2023/07/05 04:11:16;;;;;;;11.70;3.17;;;22.60;99.90;;;;;;5092926;28;20036;-79
2023/07/05 04:13:48;;;;;;;5.68;2.53;;;22.60;99.90;;;;;;5091636;28;20119;-79
2023/07/05 04:16:17;;;;;;;4.72;2.47;;;22.60;99.90;;;;;;5091404;28;20040;-80
2023/07/05 04:18:45;;;;;;;5.13;2.80;;;22.60;99.90;;;;;;5093477;28;20100;-79
2023/07/05 04:21:12;;;;;;;7.97;3.00;;;22.60;99.90;;;;;;5093153;28;20024;-78
2023/07/05 04:23:40;;;;;;;8.38;2.92;;;22.60;99.90;;;;;;5091616;28;20451;-80
2023/07/05 04:26:15;;;;;;;6.32;2.67;;;22.60;99.90;;;;;;5092687;28;20020;-79
2023/07/05 04:28:42;;;;;;;6.45;3.15;;;22.70;99.90;;;;;;5093252;28;20031;-78
2023/07/05 04:31:11;;;;;;;5.57;2.75;;;22.60;99.90;;;;;;5092970;28;20044;-79
2023/07/05 04:33:37;;;;;;;6.90;2.92;;;22.50;99.90;;;;;;5093027;28;20056;-80
2023/07/05 04:36:04;;;;;;;6.38;2.70;;;22.50;99.90;;;;;;5092726;28;20031;-80
2023/07/05 04:38:30;;;;;;;8.32;2.80;;;22.60;99.90;;;;;;5093147;28;20032;-81
2023/07/05 04:40:58;;;;;;;7.45;3.05;;;22.60;99.90;;;;;;5092603;28;20016;-79
2023/07/05 04:43:25;;;;;;;9.63;3.35;;;22.70;99.90;;;;;;5092706;28;20027;-79
2023/07/05 04:45:53;;;;;;;12.48;3.15;;;22.70;99.90;;;;;;5092595;28;20024;-80
2023/07/05 04:48:20;;;;;;;5.90;2.55;;;22.70;99.90;;;;;;5091100;28;20024;-82
2023/07/05 04:50:52;;;;;;;6.30;3.05;;;22.70;99.90;;;;;;5092994;28;20107;-81
2023/07/05 04:53:22;;;;;;;15.40;3.97;;;22.80;99.90;;;;;;5091658;28;20035;-79
2023/07/05 04:55:50;;;;;;;10.75;3.20;;;22.80;99.90;;;;;;5092341;28;20020;-80
2023/07/05 04:58:17;;;;;;;10.90;3.28;;;22.90;99.90;;;;;;5092268;28;20039;-81
2023/07/05 05:00:49;;;;;;;8.90;3.08;;;22.90;99.90;;;;;;5092799;28;20020;-81
2023/07/05 05:03:17;;;;;;;7.13;2.92;;;23.10;99.90;;;;;;5092919;28;20024;-80
2023/07/05 05:05:44;;;;;;;5.88;2.65;;;23.20;99.90;;;;;;5096134;28;20074;-80
2023/07/05 05:08:11;;;;;;;7.53;2.95;;;24.40;99.90;;;;;;5096432;28;20464;-81
2023/07/05 05:10:38;;;;;;;7.47;3.03;;;25.80;99.90;;;;;;5095757;28;20503;-79
2023/07/05 05:13:05;;;;;;;;;;;27.20;99.90;;;;;;5096463;28;20031;-80
2023/07/05 05:15:38;;;;;;;6.57;2.60;;;28.40;99.90;;;;;;5095741;28;19908;-80
2023/07/05 05:18:09;;;;;;;9.13;3.08;;;29.00;99.90;;;;;;5095474;28;20052;-80
2023/07/05 05:20:38;;;;;;;7.22;2.60;;;29.40;99.90;;;;;;5095534;28;20376;-80
2023/07/05 05:23:05;;;;;;;5.50;2.60;;;30.30;99.90;;;;;;5095538;28;20340;-81
2023/07/05 05:25:31;;;;;;;5.85;2.60;;;31.00;99.90;;;;;;5093802;28;20473;-81
2023/07/05 05:27:58;;;;;;;5.10;2.60;;;32.00;99.90;;;;;;5095741;28;20024;-81
2023/07/05 05:30:24;;;;;;;10.30;2.67;;;32.80;99.90;;;;;;5095764;28;20138;-81
2023/07/05 05:32:51;;;;;;;8.77;2.95;;;33.30;99.90;;;;;;5095884;28;20313;-81
2023/07/05 05:35:17;;;;;;;5.20;2.75;;;33.40;99.90;;;;;;5095469;28;20103;-81
2023/07/05 05:37:43;;;;;;;7.93;3.15;;;34.00;99.90;;;;;;5095835;28;20095;-82
2023/07/05 05:40:10;;;;;;;6.53;3.00;;;34.10;99.90;;;;;;5093788;28;20030;-81
2023/07/05 05:42:37;;;;;;;9.88;3.30;;;33.30;99.90;;;;;;5093894;28;20051;-81
2023/07/05 05:45:04;;;;;;;10.52;2.85;;;34.00;99.90;;;;;;5095165;28;20024;-80
2023/07/05 05:47:30;;;;;;;6.75;3.00;;;35.20;99.90;;;;;;5095252;28;20483;-81
2023/07/05 05:49:56;;;;;;;8.15;3.00;;;36.10;99.90;;;;;;5095034;28;20031;-79
2023/07/05 05:52:22;;;;;;;7.50;2.80;;;36.60;99.90;;;;;;5093160;28;20047;-82
2023/07/05 05:54:48;;;;;;;9.90;2.60;;;35.40;99.90;;;;;;5094513;28;20030;-80
2023/07/05 05:57:14;;;;;;;7.97;2.90;;;35.60;99.90;;;;;;5095027;28;20024;-81
2023/07/05 05:59:40;;;;;;;8.77;2.92;;;35.60;99.90;;;;;;5093253;28;20024;-82
2023/07/05 06:02:08;;;;;;;9.90;2.97;;;35.10;99.90;;;;;;5094691;28;20460;-82
2023/07/05 06:04:34;;;;;;;5.38;2.80;;;34.30;99.90;;;;;;5095117;28;20043;-80
2023/07/05 06:07:00;;;;;;;6.63;2.40;;;33.10;99.90;;;;;;5094525;28;20032;-83
2023/07/05 06:09:27;;;;;;;6.25;2.90;;;33.60;99.90;;;;;;5093467;28;20028;-82
2023/07/05 06:11:53;;;;;;;7.65;2.45;;;33.70;99.90;;;;;;5094242;28;20036;-81
2023/07/05 06:14:19;;;;;;;6.50;2.78;;;34.40;99.90;;;;;;5094249;28;20031;-81
2023/07/05 06:16:45;;;;;;;10.48;2.90;;;34.40;99.90;;;;;;5094166;28;20412;-81
2023/07/05 06:19:11;;;;;;;9.40;2.80;;;35.00;99.90;;;;;;5094073;28;20024;-80
2023/07/05 06:21:37;;;;;;;7.07;2.70;;;35.30;99.90;;;;;;5093892;28;20089;-80
2023/07/05 06:24:04;;;;;;;6.57;2.63;;;35.60;99.90;;;;;;5093979;28;20055;-81
2023/07/05 06:26:31;;;;;;;9.10;2.80;;;35.50;99.90;;;;;;5093637;28;20024;-80
2023/07/05 06:28:57;;;;;;;6.28;2.70;;;35.10;99.90;;;;;;5094277;28;20078;-80
2023/07/05 06:31:23;;;;;;;9.30;3.13;;;34.00;99.90;;;;;;5094544;28;20032;-80
2023/07/05 06:33:49;;;;;;;8.85;2.80;;;34.60;99.90;;;;;;5094004;28;20028;-81
2023/07/05 06:36:15;;;;;;;5.75;2.88;;;34.60;99.90;;;;;;5093776;28;20049;-79
2023/07/05 06:38:41;;;;;;;6.97;3.22;;;34.00;99.90;;;;;;5093877;28;20020;-80
2023/07/05 06:41:07;;;;;;;5.53;2.97;;;34.50;99.90;;;;;;5093593;28;20028;-80
2023/07/05 06:43:33;;;;;;;6.95;3.20;;;33.50;99.90;;;;;;5094164;28;20024;-81
2023/07/05 06:45:59;;;;;;;12.38;3.13;;;32.90;99.90;;;;;;5093843;28;20024;-79
2023/07/05 06:48:25;;;;;;;7.20;2.90;;;34.50;99.90;;;;;;5092618;28;20364;-80
2023/07/05 06:50:53;;;;;;;6.72;3.22;;;35.00;99.90;;;;;;5093841;28;20039;-81
2023/07/05 06:53:20;;;;;;;6.35;2.92;;;35.10;99.90;;;;;;5093560;28;20028;-81
2023/07/05 06:55:49;;;;;;;6.72;2.75;;;35.80;99.90;;;;;;5093460;28;20035;-80
2023/07/05 06:58:16;;;;;;;9.65;3.00;;;36.90;99.90;;;;;;5093855;28;20024;-81
2023/07/05 07:00:48;;;;;;;8.68;3.38;;;36.90;99.90;;;;;;5093989;28;20034;-80
2023/07/05 07:03:15;;;;;;;6.78;2.78;;;37.40;99.90;;;;;;5093579;28;20031;-81
2023/07/05 07:05:47;;;;;;;7.22;2.90;;;36.10;99.90;;;;;;5093445;28;20035;-81
2023/07/05 07:08:13;;;;;;;6.07;3.20;;;36.20;99.90;;;;;;5092934;28;20444;-81
2023/07/05 07:10:39;;;;;;;8.73;2.90;;;35.50;99.90;;;;;;5092802;28;20047;-79
2023/07/05 07:13:05;;;;;;;7.85;3.00;;;36.60;99.90;;;;;;5093489;28;20017;-80
2023/07/05 07:15:31;;;;;;;8.07;3.47;;;37.50;99.90;;;;;;5093642;28;20093;-80
2023/07/05 07:17:58;;;;;;;6.97;3.03;;;36.40;99.90;;;;;;5092866;28;20040;-79
2023/07/05 07:20:25;;;;;;;8.50;3.00;;;37.60;99.90;;;;;;5093219;28;20028;-79
2023/07/05 07:22:53;;;;;;;7.53;3.28;;;38.20;99.90;;;;;;5092670;28;20048;-80
2023/07/05 07:25:19;;;;;;;7.82;3.20;;;37.80;99.90;;;;;;5093201;28;20074;-79
2023/07/05 07:27:45;;;;;;;5.57;2.80;;;36.80;99.90;;;;;;5092598;28;20024;-80
2023/07/05 07:30:12;;;;;;;6.50;3.38;;;36.40;99.90;;;;;;5092399;28;20392;-79
2023/07/05 07:32:38;;;;;;;7.97;3.53;;;34.40;99.90;;;;;;5092236;28;20035;-79
2023/07/05 07:35:04;;;;;;;9.88;3.38;;;32.40;99.90;;;;;;5090984;28;20024;-79
2023/07/05 07:37:34;;;;;;;6.10;3.20;;;32.50;99.90;;;;;;5091242;28;20107;-79
2023/07/05 07:40:00;;;;;;;9.50;3.60;;;31.90;99.90;;;;;;5093568;28;20045;-80
2023/07/05 07:42:26;;;;;;;8.48;3.38;;;31.40;99.90;;;;;;5092503;28;20028;-80
2023/07/05 07:44:55;;;;;;;7.53;3.58;;;31.00;99.90;;;;;;5092458;28;20391;-80
2023/07/05 07:47:22;;;;;;;12.35;3.40;;;31.60;99.90;;;;;;5092522;28;20028;-80
2023/07/05 07:49:49;;;;;;;9.43;3.67;;;32.50;99.90;;;;;;5092984;28;20440;-80
2023/07/05 07:52:17;;;;;;;10.85;4.00;;;32.50;99.90;;;;;;5092698;28;20530;-80
2023/07/05 07:54:43;;;;;;;7.57;3.35;;;33.00;99.90;;;;;;5092593;28;20146;-80
2023/07/05 07:57:09;;;;;;;;;;;33.30;99.90;;;;;;5093134;28;20024;-79
2023/07/05 07:59:40;;;;;;;9.35;3.40;;;32.20;99.90;;;;;;5092537;28;20397;-81
2023/07/05 08:02:13;;;;;;;7.63;3.05;;;31.90;99.90;;;;;;5092953;28;20024;-79
2023/07/05 08:04:44;;;;;;;7.25;3.30;;;31.80;99.90;;;;;;5092710;28;20526;-80
2023/07/05 08:07:10;;;;;;;7.15;3.03;;;32.20;99.90;;;;;;5092606;28;20056;-80
2023/07/05 08:09:36;;;;;;;7.32;3.70;;;32.20;99.90;;;;;;5092323;28;20032;-81
2023/07/05 08:12:02;;;;;;;6.60;2.92;;;32.20;99.90;;;;;;5091934;28;20028;-80
2023/07/05 08:14:28;;;;;;;8.55;3.00;;;31.70;99.90;;;;;;5092165;28;20099;-79
2023/07/05 08:16:55;;;;;;;6.10;2.95;;;31.70;99.90;;;;;;5092210;28;20044;-80
2023/07/05 08:19:21;;;;;;;11.75;3.38;;;32.20;99.90;;;;;;5092636;28;20427;-79
2023/07/05 08:21:48;;;;;;;8.38;3.50;;;32.40;99.90;;;;;;5092184;28;20373;-79
2023/07/05 08:24:16;;;;;;;6.72;2.90;;;32.80;99.90;;;;;;5090887;28;20050;-80
2023/07/05 08:26:42;;;;;;;7.20;2.92;;;33.10;99.90;;;;;;5091986;28;20031;-79
2023/07/05 08:29:09;;;;;;;7.00;3.00;;;33.30;99.90;;;;;;5091974;28;20073;-79
2023/07/05 08:31:35;;;;;;;5.55;2.75;;;33.00;99.90;;;;;;5091920;28;20032;-80
2023/07/05 08:34:02;;;;;;;9.73;3.20;;;32.30;99.90;;;;;;5092000;28;20387;-79
2023/07/05 08:36:36;;;;;;;8.40;3.17;;;32.20;99.90;;;;;;5092000;28;20028;-80
2023/07/05 08:39:05;;;;;;;6.75;3.15;;;31.70;99.90;;;;;;5092845;28;20067;-79
2023/07/05 08:41:46;;;;;;;8.15;3.30;;;32.20;99.90;;;;;;5094602;28;20040;-78
2023/07/05 08:44:18;;;;;;;7.20;3.00;;;33.10;99.90;;;;;;5096388;28;20353;-79
2023/07/05 08:46:51;;;;;;;10.90;2.70;;;33.70;99.90;;;;;;5096332;28;20024;-79
2023/07/05 08:49:47;;;;;;;7.63;3.10;;;34.00;99.90;;;;;;5096071;28;20071;-79
2023/07/05 08:52:34;;;;;;;9.13;3.03;;;34.20;99.90;;;;;;5095421;28;20131;-79
2023/07/05 08:55:08;;;;;;;6.90;2.80;;;34.20;99.90;;;;;;5095714;28;20024;-80
2023/07/05 08:57:51;;;;;;;5.15;2.35;;;34.10;99.90;;;;;;5096093;28;20023;-81
2023/07/05 09:00:24;;;;;;;7.75;2.88;;;33.60;99.90;;;;;;5095977;28;20021;-80
2023/07/05 09:02:50;;;;;;;6.15;2.97;;;33.30;99.90;;;;;;5095253;28;20418;-80
2023/07/05 09:05:23;;;;;;;8.73;2.75;;;33.10;99.90;;;;;;5095903;28;20465;-80
2023/07/05 09:08:37;;;;;;;17.27;3.25;;;33.30;99.90;;;;;;5096058;28;20452;-80
2023/07/05 09:11:13;;;;;;;10.75;2.95;;;33.70;99.90;;;;;;5076653;28;20040;-79
2023/07/05 09:13:40;;;;;;;;;;;34.00;99.90;;;;;;5096067;28;20123;-80
2023/07/05 09:16:37;;;;;;;8.25;2.90;;;34.10;99.90;;;;;;5095135;28;19912;-79
2023/07/05 09:19:24;;;;;;;8.98;2.50;;;33.90;99.90;;;;;;5095186;28;20031;-79
2023/07/05 09:21:58;;;;;;;6.90;2.70;;;33.70;99.90;;;;;;5095426;28;20061;-79
2023/07/05 09:24:39;;;;;;;5.70;2.47;;;33.80;99.90;;;;;;5095311;28;20024;-80
2023/07/05 09:27:09;;;;;;;8.50;2.30;;;33.90;99.90;;;;;;5095180;28;20048;-80
2023/07/05 09:29:46;;;;;;;11.07;2.60;;;33.90;99.90;;;;;;5095707;28;20034;-79
2023/07/05 09:32:21;;;;;;;11.20;2.70;;;33.60;99.90;;;;;;5095581;28;20093;-80
2023/07/05 09:34:59;;;;;;;5.35;2.45;;;33.60;99.90;;;;;;5095560;28;20022;-80
2023/07/05 09:37:35;;;;;;;12.00;2.67;;;33.90;99.90;;;;;;5095494;28;20099;-80
2023/07/05 09:40:25;;;;;;;8.85;2.80;;;33.80;99.90;;;;;;5095143;28;20025;-80
2023/07/05 09:43:06;;;;;;;10.40;2.63;;;33.60;99.90;;;;;;5095390;28;20111;-79
2023/07/05 09:45:32;;;;;;;7.25;2.80;;;33.60;99.90;;;;;;5095457;28;20368;-80
2023/07/05 09:48:01;;;;;;;7.82;2.83;;;33.60;99.90;;;;;;5094846;28;20028;-80
2023/07/05 09:50:28;;;;;;;5.97;2.55;;;33.30;99.90;;;;;;5094211;28;20058;-80
2023/07/05 09:53:49;;;;;;;9.38;2.58;;;33.20;99.90;;;;;;5094725;28;20061;-79
2023/07/05 09:56:26;;;;;;;6.95;2.50;;;33.20;99.90;;;;;;5052041;28;20043;-80
2023/07/05 09:59:05;;;;;;;7.68;2.70;;;33.20;99.90;;;;;;5052381;28;20048;-80
2023/07/05 10:01:31;;;;;;;9.38;2.70;;;32.70;99.90;;;;;;5052776;28;20146;-80
2023/07/05 10:04:03;;;;;;;8.52;2.50;;;32.80;99.90;;;;;;5052165;28;20428;-78
2023/07/05 10:06:29;;;;;;;4.15;2.45;;;32.70;99.90;;;;;;5052059;28;20128;-78
2023/07/05 10:08:59;;;;;;;6.32;2.80;;;32.90;99.90;;;;;;5052181;28;20429;-78
2023/07/05 10:11:33;;;;;;;12.20;2.60;;;32.90;99.90;;;;;;5051482;28;20060;-79
2023/07/05 10:14:06;;;;;;;9.65;2.50;;;32.90;99.90;;;;;;5052071;28;20073;-79
2023/07/05 10:16:45;;;;;;;9.07;2.80;;;32.90;99.90;;;;;;5051607;28;20075;-79
2023/07/05 10:19:21;;;;;;;13.25;3.05;;;32.80;99.90;;;;;;5051890;28;20025;-79
2023/07/05 10:21:52;;;;;;;9.10;2.72;;;33.00;99.90;;;;;;5052094;28;20033;-78
2023/07/05 10:24:20;;;;;;;6.82;2.70;;;33.20;99.90;;;;;;5051489;28;20025;-79
2023/07/05 10:26:51;;;;;;;6.13;2.58;;;33.40;99.90;;;;;;5051290;28;20115;-79
2023/07/05 10:29:22;;;;;;;7.53;2.53;;;33.30;99.90;;;;;;5034465;28;20112;-78
2023/07/05 10:31:58;;;;;;;7.57;2.55;;;33.20;99.90;;;;;;5041483;28;20051;-78
2023/07/05 10:34:25;;;;;;;7.35;2.50;;;33.20;99.90;;;;;;5093971;28;20028;-79
2023/07/05 10:36:51;;;;;;;12.13;2.70;;;33.40;99.90;;;;;;5092252;28;20052;-80
2023/07/05 10:39:26;;;;;;;11.57;3.30;;;33.20;99.90;;;;;;5093651;28;20062;-80
2023/07/05 10:41:57;;;;;;;10.90;2.97;;;33.40;99.90;;;;;;5093782;28;20055;-79
2023/07/05 10:44:31;;;;;;;9.02;2.83;;;32.90;99.90;;;;;;5093637;28;20090;-79
2023/07/05 10:46:58;;;;;;;9.77;3.00;;;32.80;99.90;;;;;;5094259;28;20040;-80
2023/07/05 10:49:27;;;;;;;7.70;3.00;;;33.00;99.90;;;;;;5093794;28;20039;-80
2023/07/05 10:51:59;;;;;;;6.70;2.83;;;32.90;99.90;;;;;;5093742;28;20032;-80
2023/07/05 10:54:42;;;;;;;5.80;3.00;;;33.00;99.90;;;;;;5093638;28;20379;-79
2023/07/05 10:57:42;;;;;;;9.05;3.00;;;33.00;99.90;;;;;;5093429;28;20032;-79
2023/07/05 11:00:23;;;;;;;8.70;2.90;;;32.90;99.90;;;;;;5070708;28;20047;-79
2023/07/05 11:02:56;;;;;;;8.05;3.13;;;33.00;99.90;;;;;;5093339;28;20016;-79
2023/07/05 11:05:47;;;;;;;8.63;3.30;;;33.00;99.90;;;;;;5093094;28;20039;-79
2023/07/05 11:08:24;;;;;;;8.43;3.58;;;33.10;99.90;;;;;;5093721;28;20070;-78
2023/07/05 11:10:52;;;;;;;10.50;4.00;;;33.00;99.90;;;;;;5093577;28;20387;-79
2023/07/05 11:13:21;;;;;;;9.52;3.90;;;33.10;99.90;;;;;;5093657;28;20024;-79
2023/07/05 11:15:48;;;;;;;8.95;3.88;;;33.10;99.90;;;;;;5093394;28;20476;-78
2023/07/05 11:18:20;;;;;;;9.48;4.22;;;33.10;99.90;;;;;;5093858;28;20066;-79
2023/07/05 11:20:49;;;;;;;11.35;4.13;;;33.00;99.90;;;;;;5093606;28;20024;-79
2023/07/05 11:23:44;;;;;;;13.18;4.40;;;32.70;99.90;;;;;;5093581;28;20027;-79
2023/07/05 11:26:11;;;;;;;11.25;4.50;;;32.70;99.90;;;;;;5050492;28;20413;-81
2023/07/05 11:28:42;;;;;;;12.65;4.28;;;32.50;99.90;;;;;;5051203;28;20039;-78
2023/07/05 11:31:10;;;;;;;12.75;5.00;;;32.80;99.90;;;;;;5050685;28;20049;-79
2023/07/05 11:33:36;;;;;;;13.43;4.13;;;32.50;99.90;;;;;;5051035;28;20021;-79
2023/07/05 11:36:24;;;;;;;12.38;4.63;;;32.40;99.90;;;;;;5050869;28;20055;-79
2023/07/05 11:38:59;;;;;;;9.40;4.20;;;32.00;99.90;;;;;;5050443;28;20072;-80
2023/07/05 11:41:32;;;;;;;10.10;4.50;;;31.70;99.90;;;;;;5050780;28;20473;-79
2023/07/05 11:44:02;;;;;;;13.40;5.13;;;31.90;99.90;;;;;;5067358;28;20037;-80
2023/07/05 11:46:37;;;;;;;10.20;4.75;;;31.70;99.90;;;;;;5050887;28;20066;-79
2023/07/05 11:49:25;;;;;;;12.77;5.00;;;31.50;99.90;;;;;;5050766;28;20027;-80
2023/07/05 11:52:15;;;;;;;15.05;6.22;;;30.90;99.90;;;;;;5050463;28;20040;-78
2023/07/05 11:54:49;;;;;;;11.57;5.18;;;31.40;99.90;;;;;;5050621;28;20483;-79
2023/07/05 11:57:19;;;;;;;14.52;4.93;;;31.60;99.90;;;;;;5050525;28;20052;-80
2023/07/05 11:59:52;;;;;;;9.63;4.35;;;31.90;99.90;;;;;;5051008;28;20029;-79
2023/07/05 12:02:53;;;;;;;9.35;5.13;;;31.80;99.90;;;;;;5061858;28;20036;-80
2023/07/05 12:05:24;;;;;;;15.55;4.68;;;31.80;99.90;;;;;;5093261;28;20020;-80
2023/07/05 12:08:17;;;;;;;11.98;4.25;;;31.90;99.90;;;;;;5093295;28;20077;-78
2023/07/05 12:10:54;;;;;;;10.13;4.43;;;31.70;99.90;;;;;;5093005;28;20077;-78
2023/07/05 12:13:24;;;;;;;13.73;4.50;;;31.60;99.90;;;;;;5097396;28;20542;-79
2023/07/05 12:15:50;;;;;;;9.88;5.55;;;31.70;99.90;;;;;;5099036;28;20422;-78
2023/07/05 12:18:18;;;;;;;13.55;6.10;;;31.80;99.90;;;;;;5099833;28;20115;-78
2023/07/05 12:20:47;;;;;;;12.85;5.97;;;31.50;99.90;;;;;;5099881;28;20024;-79
2023/07/05 12:23:16;;;;;;;13.80;6.78;;;31.60;99.90;;;;;;5099800;28;20020;-78
2023/07/05 12:25:49;;;;;;;11.77;6.32;;;31.80;99.90;;;;;;5099411;28;20028;-79
2023/07/05 12:28:27;;;;;;;10.68;4.80;;;31.90;99.90;;;;;;5099489;28;20039;-78
2023/07/05 12:30:58;;;;;;;12.57;4.35;;;31.80;99.90;;;;;;5097932;28;20389;-79
2023/07/05 12:33:27;;;;;;;9.77;5.43;;;31.70;99.90;;;;;;5099709;28;20031;-79
2023/07/05 12:36:15;;;;;;;12.88;4.18;;;31.70;99.90;;;;;;5099226;28;20028;-80
2023/07/05 12:38:44;;;;;;;12.73;5.72;;;31.30;99.90;;;;;;5099226;28;20390;-79
2023/07/05 12:41:20;;;;;;;13.02;5.13;;;31.20;99.90;;;;;;5099287;28;20503;-78
2023/07/05 12:43:48;;;;;;;13.20;5.00;;;31.50;99.90;;;;;;5099599;28;20042;-79
2023/07/05 12:46:21;;;;;;;9.95;4.80;;;31.60;99.90;;;;;;5099423;28;20028;-79
2023/07/05 12:48:49;;;;;;;8.82;4.00;;;31.40;99.90;;;;;;5099189;28;20028;-80
2023/07/05 12:51:24;;;;;;;11.00;4.00;;;31.40;99.90;;;;;;5099033;28;20202;-81
2023/07/05 12:53:56;;;;;;;10.63;4.43;;;31.40;99.90;;;;;;5099097;28;20101;-78
2023/07/05 12:56:37;;;;;;;9.60;4.00;;;31.40;99.90;;;;;;5099061;28;20048;-79
2023/07/05 12:59:16;;;;;;;10.95;4.10;;;31.60;99.90;;;;;;5099173;28;20081;-79
2023/07/05 13:01:44;;;;;;;11.00;3.85;;;31.40;99.90;;;;;;5099533;28;20480;-79
2023/07/05 13:04:18;;;;;;;13.18;4.57;;;31.60;99.90;;;;;;5097526;28;20387;-80
2023/07/05 13:06:48;;;;;;;6.90;3.65;;;31.90;99.90;;;;;;5098949;28;20024;-80